createdAt,value
2023-03-29T00:01:07.594Z,95913.19
2023-03-29T00:03:35.985Z,95904.63
2023-03-29T00:06:06.617Z,95904.06
2023-03-29T00:08:35.681Z,95904.31
2023-03-29T00:11:04.161Z,95909.22
2023-03-29T00:13:32.837Z,95906.78
2023-03-29T00:16:01.144Z,95905.91
2023-03-29T00:18:29.460Z,95905.91
2023-03-29T00:20:57.903Z,95899.75
2023-03-29T00:23:27.784Z,95891.94
2023-03-29T00:25:57.002Z,95913.66
2023-03-29T00:28:25.621Z,95913.50
2023-03-29T00:30:54.145Z,95907.88
2023-03-29T00:33:23.268Z,95905.22
2023-03-29T00:35:54.523Z,95899.38
2023-03-29T00:38:22.847Z,95905.44
2023-03-29T00:40:52.839Z,95909.81
2023-03-29T00:43:21.200Z,95908.41
2023-03-29T00:45:49.533Z,95913.31
2023-03-29T00:48:19.814Z,95905.16
2023-03-29T00:50:52.108Z,95905.25
2023-03-29T00:53:26.354Z,95901.09
2023-03-29T00:56:01.859Z,95879.94
2023-03-29T00:58:35.893Z,95898.00
2023-03-29T01:01:08.912Z,95890.44
2023-03-29T01:03:46.526Z,95881.47
2023-03-29T01:06:17.512Z,95877.41
2023-03-29T01:08:52.212Z,95861.72
2023-03-29T01:11:26.780Z,95869.88
2023-03-29T01:14:00.157Z,95850.06
2023-03-29T01:16:30.513Z,95789.22
2023-03-29T01:19:00.539Z,95837.03
2023-03-29T01:21:32.468Z,95835.03
2023-03-29T01:24:42.238Z,95803.16
2023-03-29T01:27:18.984Z,95828.19
2023-03-29T01:29:51.816Z,95815.44
2023-03-29T01:32:25.291Z,95811.91
2023-03-29T01:34:59.049Z,95790.03
2023-03-29T01:37:29.309Z,95808.06
2023-03-29T01:39:57.577Z,95805.25
2023-03-29T01:42:37.123Z,95765.88
2023-03-29T01:45:17.158Z,95777.00
2023-03-29T01:47:56.763Z,95765.78
2023-03-29T01:50:37.339Z,95767.78
2023-03-29T01:53:11.117Z,95775.28
2023-03-29T01:55:44.969Z,95763.75
2023-03-29T01:58:16.563Z,95762.69
2023-03-29T02:00:47.736Z,95750.22
2023-03-29T02:03:18.051Z,95749.69
2023-03-29T02:05:47.369Z,95748.88
2023-03-29T02:08:18.145Z,95740.97
2023-03-29T02:10:47.622Z,95737.56
2023-03-29T02:13:16.107Z,95736.97
2023-03-29T02:15:47.822Z,95734.09
2023-03-29T02:18:18.913Z,95732.69
2023-03-29T02:20:50.366Z,95733.09
2023-03-29T02:23:23.531Z,95729.38
2023-03-29T02:25:54.757Z,95711.56
2023-03-29T02:28:26.277Z,95674.94
2023-03-29T02:31:03.569Z,95709.75
2023-03-29T02:33:39.730Z,95693.91
2023-03-29T02:36:13.320Z,95678.56
2023-03-29T02:38:41.709Z,95704.56
2023-03-29T02:41:12.291Z,95710.75
2023-03-29T02:43:43.514Z,95702.94
2023-03-29T02:46:15.492Z,95706.69
2023-03-29T02:48:47.360Z,95696.44
2023-03-29T02:51:20.167Z,95672.78
2023-03-29T02:53:53.504Z,95690.63
2023-03-29T02:56:22.419Z,95684.47
2023-03-29T02:58:50.764Z,95631.56
2023-03-29T03:01:23.167Z,95675.22
2023-03-29T03:03:52.214Z,95677.06
2023-03-29T03:06:21.455Z,95676.81
2023-03-29T03:08:49.865Z,95688.69
2023-03-29T03:11:18.124Z,95684.53
2023-03-29T03:13:46.387Z,95690.25
2023-03-29T03:16:15.159Z,95686.03
2023-03-29T03:18:46.394Z,95681.66
2023-03-29T03:21:14.665Z,95680.84
2023-03-29T03:23:43.697Z,95679.13
2023-03-29T03:26:11.940Z,95677.88
2023-03-29T03:28:40.289Z,95659.72
2023-03-29T03:31:10.378Z,95682.41
2023-03-29T03:33:38.980Z,95700.69
2023-03-29T03:36:10.427Z,95697.72
2023-03-29T03:38:40.179Z,95699.47
2023-03-29T03:41:09.220Z,95702.22
2023-03-29T03:43:37.688Z,95692.16
2023-03-29T03:46:06.466Z,95691.81
2023-03-29T03:48:34.782Z,95687.81
2023-03-29T03:51:03.681Z,95674.06
2023-03-29T03:53:33.958Z,95678.34
2023-03-29T03:56:08.796Z,95672.75
2023-03-29T03:58:37.861Z,95672.75
2023-03-29T04:01:08.496Z,95677.34
2023-03-29T04:03:38.094Z,95685.59
2023-03-29T04:06:07.578Z,95669.84
2023-03-29T04:08:37.281Z,95687.28
2023-03-29T04:11:07.565Z,95693.28
2023-03-29T04:13:36.001Z,95693.38
2023-03-29T04:16:05.005Z,95682.31
2023-03-29T04:18:33.443Z,95682.84
2023-03-29T04:21:02.794Z,95689.56
2023-03-29T04:23:31.331Z,95684.03
2023-03-29T04:26:01.098Z,95670.28
2023-03-29T04:28:29.357Z,95677.25
2023-03-29T04:30:57.696Z,95682.84
2023-03-29T04:33:26.953Z,95666.06
2023-03-29T04:35:55.388Z,95675.00
2023-03-29T04:38:23.928Z,95652.66
2023-03-29T04:40:52.719Z,95665.50
2023-03-29T04:43:22.758Z,95672.91
2023-03-29T04:45:51.154Z,95675.56
2023-03-29T04:48:19.482Z,95674.88
2023-03-29T04:50:48.094Z,95677.53
2023-03-29T04:53:16.767Z,95671.06
2023-03-29T04:55:45.146Z,95675.56
2023-03-29T04:58:13.479Z,95674.06
2023-03-29T05:00:43.161Z,95664.75
2023-03-29T05:03:17.209Z,95654.41
2023-03-29T05:05:45.672Z,95654.66
2023-03-29T05:08:14.036Z,95633.41
2023-03-29T05:10:43.689Z,95653.00
2023-03-29T05:13:12.041Z,95643.97
2023-03-29T05:15:41.337Z,95611.78
2023-03-29T05:18:11.287Z,95646.78
2023-03-29T05:20:40.615Z,95647.63
2023-03-29T05:23:08.914Z,95645.91
2023-03-29T05:25:37.313Z,95643.44
2023-03-29T05:28:05.976Z,95649.69
2023-03-29T05:30:35.286Z,95651.28
2023-03-29T05:33:05.767Z,95650.34
2023-03-29T05:35:36.099Z,95628.94
2023-03-29T05:38:05.069Z,95645.91
2023-03-29T05:40:33.923Z,95655.66
2023-03-29T05:43:02.834Z,95642.50
2023-03-29T05:45:32.670Z,95634.72
2023-03-29T05:48:01.033Z,95638.63
2023-03-29T05:50:30.422Z,95631.22
2023-03-29T05:53:00.163Z,95642.13
2023-03-29T05:55:28.506Z,95613.50
2023-03-29T05:57:57.347Z,95645.34
2023-03-29T06:00:26.264Z,95649.59
2023-03-29T06:02:59.291Z,95652.38
2023-03-29T06:05:35.272Z,95643.41
2023-03-29T06:08:05.353Z,95593.69
2023-03-29T06:10:36.639Z,95643.53
2023-03-29T06:13:06.594Z,95646.34
2023-03-29T06:15:36.160Z,95602.41
2023-03-29T06:18:04.762Z,95650.66
2023-03-29T06:20:33.395Z,95619.09
2023-03-29T06:23:01.823Z,95649.25
2023-03-29T06:25:31.931Z,95646.28
2023-03-29T06:28:00.398Z,95644.78
2023-03-29T06:30:28.929Z,95641.34
2023-03-29T06:32:58.002Z,95655.59
2023-03-29T06:35:26.298Z,95635.94
2023-03-29T06:37:54.862Z,95630.69
2023-03-29T06:40:23.896Z,95644.03
2023-03-29T06:42:57.900Z,95637.59
2023-03-29T06:45:29.231Z,95638.16
2023-03-29T06:47:57.814Z,95647.66
2023-03-29T06:50:26.406Z,95643.75
2023-03-29T06:52:54.797Z,95649.56
2023-03-29T06:55:23.740Z,95650.25
2023-03-29T06:57:54.705Z,95611.63
2023-03-29T07:00:29.027Z,95631.13
2023-03-29T07:02:58.156Z,95651.53
2023-03-29T07:05:28.231Z,95653.97
2023-03-29T07:07:57.169Z,95632.88
2023-03-29T07:10:28.269Z,95668.34
2023-03-29T07:12:58.407Z,95670.91
2023-03-29T07:15:27.730Z,95658.25
2023-03-29T07:17:56.248Z,95672.03
2023-03-29T07:20:25.251Z,95676.59
2023-03-29T07:22:53.884Z,95682.47
2023-03-29T07:25:23.870Z,95685.25
2023-03-29T07:27:53.379Z,95685.16
2023-03-29T07:30:25.446Z,95684.69
2023-03-29T07:32:54.131Z,95667.41
2023-03-29T07:35:23.456Z,95688.50
2023-03-29T07:37:51.883Z,95684.34
2023-03-29T07:40:23.970Z,95688.03
2023-03-29T07:42:54.310Z,95685.50
2023-03-29T07:45:28.278Z,95683.41
2023-03-29T07:47:58.576Z,95680.84
2023-03-29T07:50:27.710Z,95669.22
2023-03-29T07:52:56.976Z,95670.75
2023-03-29T07:55:25.342Z,95661.47
2023-03-29T07:57:54.199Z,95657.84
2023-03-29T08:00:24.957Z,95639.28
2023-03-29T08:02:54.287Z,95641.38
2023-03-29T08:05:37.711Z,95632.78
2023-03-29T08:08:09.827Z,95615.41
2023-03-29T08:10:39.676Z,95631.81
2023-03-29T08:13:11.969Z,95612.38
2023-03-29T08:15:46.349Z,95606.78
2023-03-29T08:18:15.054Z,95602.78
2023-03-29T08:20:43.514Z,95609.75
2023-03-29T08:23:12.102Z,95592.00
2023-03-29T08:25:40.386Z,95606.94
2023-03-29T08:28:08.765Z,95597.16
2023-03-29T08:30:37.356Z,95594.41
2023-03-29T08:33:07.797Z,95610.84
2023-03-29T08:35:36.354Z,95602.19
2023-03-29T08:38:04.647Z,95590.63
2023-03-29T08:40:32.931Z,95573.34
2023-03-29T08:43:18.161Z,95588.34
2023-03-29T08:46:00.231Z,95571.66
2023-03-29T08:48:32.895Z,95590.53
2023-03-29T08:51:06.692Z,95590.22
2023-03-29T08:53:44.269Z,95594.81
2023-03-29T08:56:15.015Z,95579.19
2023-03-29T08:58:45.856Z,95601.78
2023-03-29T09:01:14.841Z,95589.53
2023-03-29T09:03:49.145Z,95589.63
2023-03-29T09:06:22.193Z,95589.44
2023-03-29T09:08:52.321Z,95593.84
2023-03-29T09:11:43.792Z,95596.25
2023-03-29T09:14:31.828Z,95597.53
2023-03-29T09:17:07.264Z,95609.34
2023-03-29T09:19:44.269Z,95588.19
2023-03-29T09:22:22.635Z,95608.34
2023-03-29T09:25:04.919Z,95575.56
2023-03-29T09:27:37.149Z,95611.22
2023-03-29T09:30:17.036Z,95606.19
2023-03-29T09:32:52.147Z,95595.88
2023-03-29T09:35:25.343Z,95586.34
2023-03-29T09:37:55.737Z,95597.19
2023-03-29T09:40:27.927Z,95595.16
2023-03-29T09:42:58.349Z,95587.44
2023-03-29T09:45:26.765Z,95588.75
2023-03-29T09:47:59.057Z,95584.75
2023-03-29T09:50:36.089Z,95580.66
2023-03-29T09:53:05.130Z,95576.53
2023-03-29T09:55:37.657Z,95566.50
2023-03-29T09:58:14.700Z,95559.44
2023-03-29T10:00:43.455Z,95556.91
2023-03-29T10:03:18.876Z,95566.66
2023-03-29T10:05:53.336Z,95586.94
2023-03-29T10:08:27.305Z,95537.19
2023-03-29T10:10:58.295Z,95541.31
2023-03-29T10:13:30.827Z,95568.47
2023-03-29T10:16:03.792Z,95572.41
2023-03-29T10:18:33.409Z,95566.34
2023-03-29T10:21:05.508Z,95560.53
2023-03-29T10:23:35.284Z,95567.84
2023-03-29T10:26:05.553Z,95561.16
2023-03-29T10:28:36.489Z,95563.09
2023-03-29T10:31:08.434Z,95551.25
2023-03-29T10:33:38.382Z,95567.66
2023-03-29T10:36:10.854Z,95559.13
2023-03-29T10:38:39.607Z,95577.09
2023-03-29T10:41:11.936Z,95586.81
2023-03-29T10:43:45.079Z,95581.72
2023-03-29T10:46:20.340Z,95581.19
2023-03-29T10:48:50.420Z,95576.06
2023-03-29T10:51:20.823Z,95582.78
2023-03-29T10:53:49.398Z,95556.16
2023-03-29T10:56:33.353Z,95583.06
2023-03-29T10:59:16.529Z,95578.22
2023-03-29T11:01:53.427Z,95578.00
2023-03-29T11:04:33.321Z,95576.94
2023-03-29T11:07:22.766Z,95573.47
2023-03-29T11:09:59.067Z,95575.34
2023-03-29T11:12:33.590Z,95574.28
2023-03-29T11:15:18.229Z,95581.28
2023-03-29T11:18:00.181Z,95578.59
2023-03-29T11:20:37.462Z,95583.69
2023-03-29T11:23:20.777Z,95576.16
2023-03-29T11:25:59.880Z,95539.03
2023-03-29T11:28:36.477Z,95588.81
2023-03-29T11:31:15.185Z,95580.47
2023-03-29T11:33:56.911Z,95575.09
2023-03-29T11:36:33.227Z,95570.53
2023-03-29T11:39:12.077Z,95580.22
2023-03-29T11:41:43.781Z,95581.56
2023-03-29T11:44:18.736Z,95587.22
2023-03-29T11:46:51.402Z,95570.81
2023-03-29T11:49:24.214Z,95592.03
2023-03-29T11:51:56.986Z,95578.06
2023-03-29T11:54:31.857Z,95585.56
2023-03-29T11:57:07.097Z,95569.44
2023-03-29T11:59:40.763Z,95581.53
2023-03-29T12:02:13.976Z,95589.88
2023-03-29T12:04:47.802Z,95583.69
2023-03-29T12:07:23.023Z,95569.41
2023-03-29T12:09:58.222Z,95576.66
2023-03-29T12:12:30.764Z,95568.59
2023-03-29T12:15:07.239Z,95581.75
2023-03-29T12:17:40.996Z,95571.53
2023-03-29T12:20:17.267Z,95576.09
2023-03-29T12:22:49.142Z,95561.00
2023-03-29T12:25:24.532Z,95568.56
2023-03-29T12:28:05.119Z,95568.25
2023-03-29T12:30:46.572Z,95567.69
2023-03-29T12:33:47.425Z,95569.28
2023-03-29T12:36:26.535Z,95509.00
2023-03-29T12:38:55.073Z,95549.59
2023-03-29T12:41:26.229Z,95565.97
2023-03-29T12:43:55.086Z,95560.59
2023-03-29T12:46:26.932Z,95545.97
2023-03-29T12:48:58.427Z,95553.53
2023-03-29T12:51:33.116Z,95547.31
2023-03-29T12:54:08.292Z,95554.63
2023-03-29T12:56:43.167Z,95504.28
2023-03-29T12:59:28.103Z,95533.41
2023-03-29T13:02:03.012Z,95537.16
2023-03-29T13:04:49.624Z,95518.00
2023-03-29T13:07:31.021Z,95531.38
2023-03-29T13:10:01.555Z,95525.19
2023-03-29T13:12:37.550Z,95527.63
2023-03-29T13:15:09.485Z,95519.84
2023-03-29T13:17:52.313Z,95490.31
2023-03-29T13:20:38.445Z,95530.94
2023-03-29T13:23:25.048Z,95528.53
2023-03-29T13:26:07.790Z,95513.53
2023-03-29T13:28:50.984Z,95528.03
2023-03-29T13:31:34.937Z,95544.38
2023-03-29T13:34:07.185Z,95554.25
2023-03-29T13:36:51.295Z,95533.28
2023-03-29T13:39:24.804Z,95546.78
2023-03-29T13:41:55.041Z,95550.47
2023-03-29T13:44:44.466Z,95544.94
2023-03-29T13:47:30.260Z,95533.38
2023-03-29T13:50:01.177Z,95539.34
2023-03-29T13:52:32.449Z,95527.84
2023-03-29T13:55:04.522Z,95535.25
2023-03-29T13:57:38.468Z,95533.97
2023-03-29T14:00:18.032Z,95537.41
2023-03-29T14:02:52.096Z,95535.25
2023-03-29T14:05:24.666Z,95541.59
2023-03-29T14:07:55.579Z,95524.22
2023-03-29T14:10:28.676Z,95524.47
2023-03-29T14:12:57.740Z,95516.06
2023-03-29T14:15:36.286Z,95519.16
2023-03-29T14:18:04.941Z,95505.19
2023-03-29T14:20:34.882Z,95474.91
2023-03-29T14:23:03.195Z,95518.66
2023-03-29T14:25:32.479Z,95524.56
2023-03-29T14:28:01.278Z,95521.69
2023-03-29T14:30:32.311Z,95525.78
2023-03-29T14:33:05.296Z,95530.66
2023-03-29T14:35:34.979Z,95534.47
2023-03-29T14:38:04.306Z,95524.13
2023-03-29T14:40:32.811Z,95516.91
2023-03-29T14:43:06.924Z,95516.13
2023-03-29T14:45:37.566Z,95509.38
2023-03-29T14:48:06.968Z,95511.84
2023-03-29T14:50:36.583Z,95497.50
2023-03-29T14:53:06.957Z,95497.06
2023-03-29T14:55:36.743Z,95497.88
2023-03-29T14:58:05.078Z,95504.63
2023-03-29T15:00:42.945Z,95503.78
2023-03-29T15:03:16.099Z,95492.50
2023-03-29T15:05:48.552Z,95498.34
2023-03-29T15:08:20.319Z,95489.84
2023-03-29T15:10:48.842Z,95488.25
2023-03-29T15:13:24.635Z,95489.09
2023-03-29T15:15:58.297Z,95485.38
2023-03-29T15:18:29.229Z,95482.88
2023-03-29T15:20:57.614Z,95475.25
2023-03-29T15:23:27.012Z,95483.28
2023-03-29T15:25:58.928Z,95455.97
2023-03-29T15:28:31.149Z,95475.81
2023-03-29T15:33:37.236Z,95470.16
2023-03-29T15:36:07.784Z,95456.28
2023-03-29T15:38:44.177Z,95461.78
2023-03-29T15:41:14.743Z,95432.88
2023-03-29T15:43:43.468Z,95467.53
2023-03-29T15:46:14.901Z,95464.59
2023-03-29T15:48:43.632Z,95453.03
2023-03-29T15:51:12.669Z,95456.31
2023-03-29T15:53:41.938Z,95444.25
2023-03-29T15:56:12.504Z,95455.00
2023-03-29T15:58:40.892Z,95446.63
2023-03-29T16:01:16.236Z,95418.50
2023-03-29T16:03:47.888Z,95452.59
2023-03-29T16:06:17.672Z,95409.97
2023-03-29T16:08:46.197Z,95443.75
2023-03-29T16:11:14.603Z,95441.56
2023-03-29T16:13:43.035Z,95438.91
2023-03-29T16:16:12.329Z,95434.31
2023-03-29T16:18:40.806Z,95426.84
2023-03-29T16:21:14.636Z,95425.53
2023-03-29T16:23:43.784Z,95413.22
2023-03-29T16:26:13.660Z,95426.66
2023-03-29T16:28:42.333Z,95425.59
2023-03-29T16:31:12.554Z,95419.13
2023-03-29T16:33:41.105Z,95425.69
2023-03-29T16:36:11.926Z,95426.53
2023-03-29T16:38:40.870Z,95418.53
2023-03-29T16:41:09.169Z,95417.28
2023-03-29T16:43:38.804Z,95420.56
2023-03-29T16:46:09.082Z,95421.72
2023-03-29T16:48:37.738Z,95375.69
2023-03-29T16:51:07.058Z,95419.59
2023-03-29T16:53:36.939Z,95427.25
2023-03-29T16:56:06.051Z,95422.94
2023-03-29T16:58:34.599Z,95419.44
2023-03-29T17:01:10.147Z,95417.81
2023-03-29T17:03:39.250Z,95422.94
2023-03-29T17:06:09.379Z,95419.78
2023-03-29T17:08:42.077Z,95421.44
2023-03-29T17:11:11.870Z,95316.03
2023-03-29T17:13:40.379Z,95412.53
2023-03-29T17:16:10.552Z,95417.13
2023-03-29T17:18:39.515Z,95414.44
2023-03-29T17:21:08.792Z,95424.75
2023-03-29T17:23:38.512Z,95427.81
2023-03-29T17:26:08.686Z,95424.31
2023-03-29T17:28:37.227Z,95428.63
2023-03-29T17:31:08.257Z,95418.97
2023-03-29T17:33:37.035Z,95351.09
2023-03-29T17:36:06.987Z,95414.13
2023-03-29T17:38:35.959Z,95409.84
2023-03-29T17:41:07.151Z,95406.59
2023-03-29T17:43:35.771Z,95407.16
2023-03-29T17:46:04.715Z,95410.41
2023-03-29T17:48:33.981Z,95411.78
2023-03-29T17:51:02.351Z,95422.84
2023-03-29T17:53:31.014Z,95308.50
2023-03-29T17:55:59.279Z,95411.84
2023-03-29T17:58:29.194Z,95402.13
2023-03-29T18:00:58.273Z,95401.88
2023-03-29T18:03:27.329Z,95389.34
2023-03-29T18:05:56.680Z,95409.50
2023-03-29T18:08:25.759Z,95403.59
2023-03-29T18:10:54.038Z,95382.66
2023-03-29T18:13:25.589Z,95289.75
2023-03-29T18:15:57.678Z,95407.91
2023-03-29T18:18:28.786Z,95406.63
2023-03-29T18:20:57.662Z,95392.56
2023-03-29T18:23:25.964Z,95401.50
2023-03-29T18:26:01.242Z,95373.00
2023-03-29T18:28:29.989Z,95341.88
2023-03-29T18:31:00.436Z,95397.75
2023-03-29T18:33:30.412Z,95369.78
2023-03-29T18:35:59.430Z,95391.84
2023-03-29T18:38:27.794Z,95364.16
2023-03-29T18:40:56.184Z,95342.63
2023-03-29T18:43:24.454Z,95388.28
2023-03-29T18:45:53.043Z,95372.09
2023-03-29T18:48:22.896Z,95362.75
2023-03-29T18:50:52.256Z,95266.03
2023-03-29T18:53:21.313Z,95338.78
2023-03-29T18:55:49.824Z,95351.44
2023-03-29T18:58:19.208Z,95301.97
2023-03-29T19:00:47.731Z,95350.81
2023-03-29T19:03:16.272Z,95349.75
2023-03-29T19:05:46.170Z,95345.53
2023-03-29T19:08:14.535Z,95304.69
2023-03-29T19:10:42.837Z,95353.59
2023-03-29T19:13:11.266Z,95335.88
2023-03-29T19:15:40.664Z,95340.44
2023-03-29T19:18:09.337Z,95332.06
2023-03-29T19:20:38.283Z,95341.22
2023-03-29T19:23:08.225Z,95332.13
2023-03-29T19:25:36.814Z,95328.84
2023-03-29T19:28:05.476Z,95325.38
2023-03-29T19:30:36.103Z,95324.84
2023-03-29T19:33:04.598Z,95271.09
2023-03-29T19:35:32.941Z,95315.47
2023-03-29T19:38:01.345Z,95318.38
2023-03-29T19:40:31.021Z,95317.31
2023-03-29T19:42:59.412Z,95317.00
2023-03-29T19:45:28.124Z,95310.84
2023-03-29T19:47:56.604Z,95325.72
2023-03-29T19:50:26.457Z,95319.47
2023-03-29T19:52:57.255Z,95325.06
2023-03-29T19:55:26.409Z,95313.28
2023-03-29T19:57:56.271Z,95304.66
2023-03-29T20:00:25.252Z,95300.88
2023-03-29T20:02:55.708Z,95303.53
2023-03-29T20:05:24.160Z,95216.66
2023-03-29T20:07:52.970Z,95287.19
2023-03-29T20:10:21.331Z,95270.78
2023-03-29T20:12:50.819Z,95265.91
2023-03-29T20:15:20.975Z,95222.53
2023-03-29T20:17:51.594Z,95284.22
2023-03-29T20:20:20.113Z,95288.47
2023-03-29T20:22:48.741Z,95275.97
2023-03-29T20:25:17.657Z,95289.44
2023-03-29T20:27:48.932Z,95290.81
2023-03-29T20:30:18.400Z,95292.19
2023-03-29T20:32:48.710Z,95298.69
2023-03-29T20:35:17.220Z,95280.13
2023-03-29T20:37:46.224Z,95271.81
2023-03-29T20:40:16.275Z,95255.44
2023-03-29T20:42:46.866Z,95273.72
2023-03-29T20:45:20.034Z,95273.41
2023-03-29T20:47:58.825Z,95250.31
2023-03-29T20:50:30.325Z,95252.75
2023-03-29T20:53:02.402Z,95269.66
2023-03-29T20:55:33.650Z,95218.72
2023-03-29T20:58:03.491Z,95268.34
2023-03-29T21:00:35.564Z,95257.03
2023-03-29T21:03:07.151Z,95254.13
2023-03-29T21:05:37.366Z,95256.78
2023-03-29T21:08:06.463Z,95270.44
2023-03-29T21:10:36.684Z,95257.78
2023-03-29T21:13:05.050Z,95247.63
2023-03-29T21:15:33.971Z,95263.84
2023-03-29T21:18:02.397Z,95281.06
2023-03-29T21:20:32.471Z,95270.59
2023-03-29T21:23:01.229Z,95239.44
2023-03-29T21:25:29.545Z,95249.38
2023-03-29T21:27:57.956Z,95178.56
2023-03-29T21:30:26.283Z,95260.28
2023-03-29T21:32:54.636Z,95262.19
2023-03-29T21:35:23.000Z,95270.47
2023-03-29T21:37:52.723Z,95260.56
2023-03-29T21:40:21.202Z,95255.97
2023-03-29T21:42:49.810Z,95258.47
2023-03-29T21:45:18.282Z,95256.28
2023-03-29T21:47:46.726Z,95249.25
2023-03-29T21:50:16.292Z,95232.59
2023-03-29T21:52:44.671Z,95196.13
2023-03-29T21:55:14.540Z,95211.38
2023-03-29T21:57:43.130Z,95216.41
2023-03-29T22:00:12.890Z,95220.38
2023-03-29T22:02:42.653Z,95217.22
2023-03-29T22:05:11.903Z,95223.97
2023-03-29T22:07:40.219Z,95185.19
2023-03-29T22:10:09.551Z,95198.63
2023-03-29T22:12:41.393Z,95207.41
2023-03-29T22:15:12.210Z,95190.06
2023-03-29T22:17:41.506Z,95192.13
2023-03-29T22:20:13.397Z,95195.38
2023-03-29T22:22:45.057Z,95151.91
2023-03-29T22:25:13.622Z,95174.63
2023-03-29T22:27:44.405Z,95192.19
2023-03-29T22:30:14.183Z,95204.38
2023-03-29T22:32:42.570Z,95207.00
2023-03-29T22:35:11.449Z,95196.88
2023-03-29T22:37:43.372Z,95185.84
2023-03-29T22:40:13.361Z,95169.06
2023-03-29T22:42:43.246Z,95176.75
2023-03-29T22:45:12.319Z,95170.13
2023-03-29T22:47:40.611Z,95181.38
2023-03-29T22:50:10.048Z,95150.84
2023-03-29T22:52:38.403Z,95170.44
2023-03-29T22:55:07.508Z,95183.91
2023-03-29T22:57:35.804Z,95178.50
2023-03-29T23:00:09.399Z,95173.34
2023-03-29T23:02:37.842Z,95173.69
2023-03-29T23:05:07.097Z,95158.94
2023-03-29T23:07:36.668Z,95167.19
2023-03-29T23:10:07.065Z,95151.22
2023-03-29T23:12:36.335Z,95129.63
2023-03-29T23:15:08.151Z,95142.94
2023-03-29T23:17:37.332Z,95136.13
2023-03-29T23:20:07.237Z,95146.84
2023-03-29T23:22:36.512Z,95145.81
2023-03-29T23:25:04.856Z,95151.84
2023-03-29T23:27:33.255Z,95152.09
2023-03-29T23:30:01.701Z,95124.91
2023-03-29T23:32:31.582Z,95156.91
2023-03-29T23:35:01.453Z,95152.09
2023-03-29T23:37:30.182Z,95164.44
2023-03-29T23:39:58.509Z,95159.34
2023-03-29T23:42:26.868Z,95161.63
2023-03-29T23:44:56.054Z,95155.59
2023-03-29T23:47:24.462Z,95140.28
2023-03-29T23:49:54.798Z,95118.09
2023-03-29T23:52:23.218Z,95110.56
2023-03-29T23:54:52.140Z,95095.63
2023-03-29T23:57:21.492Z,95108.88
2023-03-29T23:59:52.900Z,95090.53
